TIST/STT METAR and TAF weather

Enter ICAO airport designator
Station Type Date Time Source
TIST METAR 2019/09/20 08:53 UTC NOAA

TIST 200853Z AUTO 06004KT 10SM CLR 28/23 A2986 RMK AO2 SLP113 60000 T02780233 55000


Station Type Date Time Source
TIST Decoded METAR 2019/09/20 08:53 UTC NOAA

Charlotte Amalie St. Thomas, Cyril E. King Airport, Virgin Islands (TIST) 18-20N 064-59W
Sep 20, 2019 - 04:53 AM EDT / 2019.09.20 0853 UTC
Wind: from the ENE (060 degrees) at 5 MPH (4 KT):0
Visibility: 10 mile(s):0
Sky conditions: clear
Temperature: 82.0 F (27.8 C)
Dew Point: 73.9 F (23.3 C)
Relative Humidity: 76%
Pressure (altimeter): 29.86 in. Hg (1011 hPa)
Pressure tendency: 0.00 inches (0.0 hPa) lower than three hours ago
ob: TIST 200853Z AUTO 06004KT 10SM CLR 28/23 A2986 RMK AO2 SLP113 60000 T02780233 55000
cycle: 9

Station Type Date Time Source
TIST TAF 2019/09/20 06:26 UTC NOAA

TAF TIST 200520Z 2006/2106 08010KT P6SM VCSH SCT030
FM201300 13012KT P6SM FEW025 SCT050
FM202200 04010KT P6SM FEW025

Example: see airport list